createdAt,value
2017-09-04T00:00:22.058Z,67.36
2017-09-04T00:00:53.659Z,67.37
2017-09-04T00:01:25.248Z,67.34
2017-09-04T00:01:56.941Z,67.34
2017-09-04T00:02:28.646Z,67.35
2017-09-04T00:03:00.219Z,67.34
2017-09-04T00:03:31.820Z,67.31
2017-09-04T00:04:03.495Z,67.28
2017-09-04T00:04:35.057Z,67.27
2017-09-04T00:05:06.661Z,67.26
2017-09-04T00:05:38.274Z,67.31
2017-09-04T00:06:09.883Z,67.29
2017-09-04T00:06:41.557Z,67.28
2017-09-04T00:07:13.173Z,67.27
2017-09-04T00:07:44.751Z,67.31
2017-09-04T00:08:16.344Z,67.26
2017-09-04T00:08:47.926Z,67.25
2017-09-04T00:09:19.931Z,67.24
2017-09-04T00:09:51.481Z,67.20
2017-09-04T00:10:23.502Z,67.28
2017-09-04T00:10:55.070Z,67.50
2017-09-04T00:11:26.650Z,67.52
2017-09-04T00:11:58.223Z,67.51
2017-09-04T00:12:29.866Z,67.49
2017-09-04T00:13:01.571Z,67.54
2017-09-04T00:13:33.190Z,67.52
2017-09-04T00:14:04.755Z,67.45
2017-09-04T00:14:36.357Z,67.47
2017-09-04T00:15:07.933Z,67.60
2017-09-04T00:15:39.783Z,67.89
2017-09-04T00:16:11.360Z,67.72
2017-09-04T00:16:43.061Z,67.74
2017-09-04T00:17:14.629Z,67.69
2017-09-04T00:17:46.214Z,67.54
2017-09-04T00:18:17.796Z,67.47
2017-09-04T00:18:49.373Z,67.15
2017-09-04T00:19:20.967Z,67.20
2017-09-04T00:19:52.590Z,67.26
2017-09-04T00:20:24.172Z,67.35
2017-09-04T00:20:55.794Z,67.33
2017-09-04T00:21:27.531Z,67.51
2017-09-04T00:21:59.122Z,67.50
2017-09-04T00:22:30.702Z,67.43
2017-09-04T00:23:02.279Z,67.54
2017-09-04T00:23:33.862Z,67.51
2017-09-04T00:24:05.484Z,67.47
2017-09-04T00:24:37.073Z,67.50
2017-09-04T00:25:08.677Z,67.43
2017-09-04T00:25:40.261Z,67.44
2017-09-04T00:26:11.851Z,67.46
2017-09-04T00:26:43.548Z,67.36
2017-09-04T00:27:15.150Z,67.33
2017-09-04T00:27:46.756Z,67.36
2017-09-04T00:28:18.469Z,67.33
2017-09-04T00:28:50.165Z,67.26
2017-09-04T00:29:21.762Z,67.24
2017-09-04T00:29:53.343Z,67.26
2017-09-04T00:30:24.954Z,67.26
2017-09-04T00:30:56.541Z,67.20
2017-09-04T00:31:28.124Z,67.13
2017-09-04T00:31:59.701Z,67.12
2017-09-04T00:32:31.397Z,67.17
2017-09-04T00:33:02.997Z,67.06
2017-09-04T00:33:34.611Z,67.05
2017-09-04T00:34:06.236Z,67.06
2017-09-04T00:34:37.800Z,67.08
2017-09-04T00:35:09.365Z,67.09
2017-09-04T00:35:40.965Z,66.98
2017-09-04T00:36:12.823Z,67.01
2017-09-04T00:36:44.537Z,66.97
2017-09-04T00:37:16.145Z,66.98
2017-09-04T00:37:47.746Z,67.04
2017-09-04T00:38:19.322Z,67.04
2017-09-04T00:38:50.907Z,66.96
2017-09-04T00:39:22.743Z,66.96
2017-09-04T00:39:54.305Z,66.96
2017-09-04T00:40:25.938Z,66.98
2017-09-04T00:40:57.594Z,66.90
2017-09-04T00:41:29.168Z,66.95
2017-09-04T00:42:00.782Z,66.96
2017-09-04T00:42:32.595Z,67.04
2017-09-04T00:43:04.170Z,67.06
2017-09-04T00:43:36.037Z,67.16
2017-09-04T00:44:07.671Z,67.21
2017-09-04T00:44:39.466Z,67.19
2017-09-04T00:45:11.062Z,67.27
2017-09-04T00:45:42.650Z,67.19
2017-09-04T00:46:14.576Z,67.19
2017-09-04T00:46:46.160Z,67.21
2017-09-04T00:47:17.749Z,67.18
2017-09-04T00:47:49.340Z,67.16
2017-09-04T00:48:20.908Z,67.24
2017-09-04T00:48:52.470Z,67.30
2017-09-04T00:49:24.038Z,67.23
2017-09-04T00:49:55.642Z,67.24
2017-09-04T00:50:27.230Z,67.24
2017-09-04T00:50:58.821Z,67.25
2017-09-04T00:51:30.439Z,67.23
2017-09-04T00:52:02.012Z,67.19
2017-09-04T00:52:33.604Z,67.23
2017-09-04T00:53:05.207Z,67.25
2017-09-04T00:53:36.808Z,67.25
2017-09-04T00:54:08.369Z,67.24
2017-09-04T00:54:39.984Z,67.20
2017-09-04T00:55:11.566Z,67.18
2017-09-04T00:55:43.137Z,67.24
2017-09-04T00:56:14.861Z,67.30
2017-09-04T00:56:46.514Z,67.25
2017-09-04T00:57:18.100Z,67.30
2017-09-04T00:57:49.697Z,67.23
2017-09-04T00:58:21.268Z,67.20
2017-09-04T00:58:52.833Z,67.24
2017-09-04T00:59:24.518Z,67.22
2017-09-04T00:59:56.161Z,67.21
2017-09-04T01:00:27.760Z,67.19
2017-09-04T01:00:59.449Z,67.19
2017-09-04T01:01:31.063Z,67.17
2017-09-04T01:02:02.688Z,67.19
2017-09-04T01:02:34.260Z,67.12
2017-09-04T01:03:05.829Z,67.10
2017-09-04T01:03:37.426Z,67.10
2017-09-04T01:04:08.995Z,67.04
2017-09-04T01:04:40.559Z,67.04
2017-09-04T01:05:12.133Z,67.08
2017-09-04T01:05:43.709Z,67.07
2017-09-04T01:06:15.314Z,67.04
2017-09-04T01:06:46.894Z,67.03
2017-09-04T01:07:18.483Z,67.04
2017-09-04T01:07:50.174Z,67.09
2017-09-04T01:08:21.738Z,67.10
2017-09-04T01:08:53.315Z,66.98
2017-09-04T01:09:24.933Z,67.26
2017-09-04T01:09:56.538Z,67.31
2017-09-04T01:10:28.150Z,67.32
2017-09-04T01:10:59.712Z,67.28
2017-09-04T01:11:31.283Z,67.31
2017-09-04T01:12:02.860Z,67.28
2017-09-04T01:12:34.492Z,67.30
2017-09-04T01:13:06.292Z,67.25
2017-09-04T01:13:37.873Z,67.26
2017-09-04T01:14:09.459Z,67.26
2017-09-04T01:14:41.022Z,67.25
2017-09-04T01:15:12.594Z,67.24
2017-09-04T01:15:44.165Z,67.23
2017-09-04T01:16:15.745Z,67.19
2017-09-04T01:16:47.321Z,67.17
2017-09-04T01:17:19.125Z,67.19
2017-09-04T01:17:50.730Z,67.20
2017-09-04T01:18:22.402Z,67.26
2017-09-04T01:18:53.972Z,67.39
2017-09-04T01:19:25.574Z,67.35
2017-09-04T01:19:57.165Z,67.30
2017-09-04T01:20:28.941Z,67.21
2017-09-04T01:21:00.527Z,67.27
2017-09-04T01:21:32.108Z,67.36
2017-09-04T01:22:03.684Z,67.30
2017-09-04T01:22:35.277Z,67.27
2017-09-04T01:23:06.920Z,67.34
2017-09-04T01:23:38.755Z,67.33
2017-09-04T01:24:10.527Z,67.27
2017-09-04T01:24:42.082Z,67.15
2017-09-04T01:25:13.659Z,67.23
2017-09-04T01:25:45.300Z,67.24
2017-09-04T01:26:17.028Z,67.19
2017-09-04T01:26:48.597Z,67.25
2017-09-04T01:27:20.312Z,67.25
2017-09-04T01:27:51.883Z,67.16
2017-09-04T01:28:23.595Z,67.08
2017-09-04T01:28:55.181Z,67.15
2017-09-04T01:29:26.882Z,67.04
2017-09-04T01:29:58.458Z,67.09
2017-09-04T01:30:30.172Z,67.17
2017-09-04T01:31:01.734Z,67.18
2017-09-04T01:31:33.449Z,67.19
2017-09-04T01:32:05.035Z,67.19
2017-09-04T01:32:36.752Z,67.10
2017-09-04T01:33:08.373Z,67.11
2017-09-04T01:33:40.216Z,67.14
2017-09-04T01:34:11.784Z,67.12
2017-09-04T01:34:43.348Z,67.06
2017-09-04T01:35:14.957Z,67.18
2017-09-04T01:35:46.551Z,67.11
2017-09-04T01:36:18.142Z,67.14
2017-09-04T01:36:49.714Z,67.16
2017-09-04T01:37:21.306Z,67.10
2017-09-04T01:37:52.881Z,67.04
2017-09-04T01:38:24.454Z,67.06
2017-09-04T01:38:56.071Z,67.06
2017-09-04T01:39:27.774Z,66.97
2017-09-04T01:39:59.342Z,66.76
2017-09-04T01:40:31.050Z,67.00
2017-09-04T01:41:02.625Z,66.92
2017-09-04T01:41:34.193Z,66.97
2017-09-04T01:42:05.803Z,67.09
2017-09-04T01:42:37.381Z,67.05
2017-09-04T01:43:08.957Z,67.07
2017-09-04T01:43:40.533Z,67.13
2017-09-04T01:44:12.125Z,67.16
2017-09-04T01:44:43.694Z,67.14
2017-09-04T01:45:15.330Z,67.18
2017-09-04T01:45:46.916Z,67.19
2017-09-04T01:46:18.501Z,67.26
2017-09-04T01:46:50.086Z,67.25
2017-09-04T01:47:21.670Z,67.26
2017-09-04T01:47:53.266Z,67.25
2017-09-04T01:48:25.064Z,67.29
2017-09-04T01:48:56.665Z,67.37
2017-09-04T01:49:28.255Z,67.35
2017-09-04T01:49:59.833Z,67.35
2017-09-04T01:50:31.401Z,67.38
2017-09-04T01:51:02.962Z,67.40
2017-09-04T01:51:34.552Z,67.35
2017-09-04T01:52:06.176Z,67.35
2017-09-04T01:52:37.749Z,67.35
2017-09-04T01:53:09.342Z,67.37
2017-09-04T01:53:41.179Z,67.38
2017-09-04T01:54:12.753Z,67.33
2017-09-04T01:54:44.366Z,67.35
2017-09-04T01:55:16.105Z,67.36
2017-09-04T01:55:47.696Z,67.36
2017-09-04T01:56:19.389Z,67.35
2017-09-04T01:56:50.962Z,67.31
2017-09-04T01:57:22.670Z,67.32
2017-09-04T01:57:54.254Z,67.35
2017-09-04T01:58:25.875Z,67.43
2017-09-04T01:58:57.457Z,67.46
2017-09-04T01:59:29.059Z,67.46
2017-09-04T02:00:00.687Z,67.49
2017-09-04T02:00:32.284Z,67.47
2017-09-04T02:01:03.855Z,67.47
2017-09-04T02:01:35.668Z,67.48
2017-09-04T02:02:07.250Z,67.53
2017-09-04T02:02:38.832Z,67.49
2017-09-04T02:03:10.424Z,67.53
2017-09-04T02:03:42.005Z,67.50
2017-09-04T02:04:13.570Z,67.50
2017-09-04T02:04:45.186Z,67.50
2017-09-04T02:05:16.850Z,67.51
2017-09-04T02:05:48.634Z,67.52
2017-09-04T02:06:20.276Z,67.49
2017-09-04T02:06:51.854Z,67.53
2017-09-04T02:07:23.447Z,67.48
2017-09-04T02:07:55.085Z,67.50
2017-09-04T02:08:26.672Z,67.48
2017-09-04T02:08:58.259Z,67.44
2017-09-04T02:09:29.831Z,67.48
2017-09-04T02:10:01.415Z,67.49
2017-09-04T02:10:33.290Z,67.45
2017-09-04T02:11:04.891Z,67.39
2017-09-04T02:11:36.498Z,67.38
2017-09-04T02:12:08.060Z,67.37
2017-09-04T02:12:39.639Z,67.37
2017-09-04T02:13:11.320Z,67.37
2017-09-04T02:13:42.921Z,67.34
2017-09-04T02:14:14.607Z,67.30
2017-09-04T02:14:46.205Z,67.34
2017-09-04T02:15:17.783Z,67.34
2017-09-04T02:15:49.534Z,67.34
2017-09-04T02:16:21.100Z,67.32
2017-09-04T02:16:52.808Z,67.31
2017-09-04T02:17:24.401Z,67.30
2017-09-04T02:17:56.050Z,67.30
2017-09-04T02:18:27.731Z,67.28
2017-09-04T02:18:59.336Z,67.26
2017-09-04T02:19:30.917Z,67.24
2017-09-04T02:20:02.503Z,67.21
2017-09-04T02:20:34.300Z,67.22
2017-09-04T02:21:05.946Z,67.17
2017-09-04T02:21:37.510Z,67.16
2017-09-04T02:22:09.230Z,67.18
2017-09-04T02:22:40.803Z,67.25
2017-09-04T02:23:12.510Z,67.28
2017-09-04T02:23:44.086Z,67.23
2017-09-04T02:24:15.738Z,67.22
2017-09-04T02:24:47.343Z,67.20
2017-09-04T02:25:19.093Z,67.19
2017-09-04T02:25:50.663Z,67.18
2017-09-04T02:26:22.274Z,67.18
2017-09-04T02:26:53.842Z,67.07
2017-09-04T02:27:25.534Z,67.06
2017-09-04T02:27:57.102Z,67.11
2017-09-04T02:28:28.668Z,67.17
2017-09-04T02:29:00.260Z,67.19
2017-09-04T02:29:31.876Z,67.21
2017-09-04T02:30:03.457Z,67.26
2017-09-04T02:30:35.056Z,67.26
2017-09-04T02:31:06.656Z,67.19
2017-09-04T02:31:38.693Z,67.21
2017-09-04T02:32:10.287Z,67.14
2017-09-04T02:32:41.877Z,67.18
2017-09-04T02:33:13.463Z,67.18
2017-09-04T02:33:45.054Z,67.14
2017-09-04T02:34:16.990Z,67.11
2017-09-04T02:34:48.576Z,67.13
2017-09-04T02:35:20.169Z,67.12
2017-09-04T02:35:51.739Z,67.13
2017-09-04T02:36:23.340Z,67.12
2017-09-04T02:36:54.978Z,67.08
2017-09-04T02:37:26.560Z,67.11
2017-09-04T02:37:58.138Z,67.05
2017-09-04T02:38:29.714Z,67.12
2017-09-04T02:39:01.278Z,67.15
2017-09-04T02:39:32.981Z,67.12
2017-09-04T02:40:04.744Z,67.09
2017-09-04T02:40:36.339Z,67.09
2017-09-04T02:41:07.924Z,67.10
2017-09-04T02:41:39.498Z,67.08
2017-09-04T02:42:11.113Z,67.07
2017-09-04T02:42:42.708Z,67.11
2017-09-04T02:43:14.297Z,67.08
2017-09-04T02:43:45.878Z,67.07
2017-09-04T02:44:17.486Z,67.08
2017-09-04T02:44:49.065Z,67.07
2017-09-04T02:45:20.676Z,67.06
2017-09-04T02:45:52.465Z,67.07
2017-09-04T02:46:24.068Z,67.09
2017-09-04T02:46:55.711Z,67.08
2017-09-04T02:47:27.328Z,67.07
2017-09-04T02:47:58.926Z,67.05
2017-09-04T02:48:30.502Z,67.02
2017-09-04T02:49:02.074Z,67.04
2017-09-04T02:49:33.729Z,67.01
2017-09-04T02:50:05.361Z,67.01
2017-09-04T02:50:36.939Z,66.99
2017-09-04T02:51:08.516Z,66.99
2017-09-04T02:51:40.094Z,66.98
2017-09-04T02:52:11.699Z,67.00
2017-09-04T02:52:43.369Z,67.00
2017-09-04T02:53:14.995Z,66.99
2017-09-04T02:53:46.626Z,66.98
2017-09-04T02:54:18.229Z,66.95
2017-09-04T02:54:49.792Z,66.95
2017-09-04T02:55:21.386Z,66.94
2017-09-04T02:55:52.970Z,66.91
2017-09-04T02:56:24.546Z,66.88
2017-09-04T02:56:56.158Z,66.91
2017-09-04T02:57:27.827Z,66.91
2017-09-04T02:57:59.483Z,66.89
2017-09-04T02:58:31.296Z,66.87
2017-09-04T02:59:02.931Z,66.86
2017-09-04T02:59:34.508Z,66.91
2017-09-04T03:00:06.138Z,66.94
2017-09-04T03:00:37.714Z,66.95
2017-09-04T03:01:09.297Z,66.96
2017-09-04T03:01:40.860Z,66.96
2017-09-04T03:02:12.446Z,66.96
2017-09-04T03:02:44.031Z,66.96
2017-09-04T03:03:15.705Z,66.97
2017-09-04T03:03:47.330Z,66.96
2017-09-04T03:04:18.916Z,66.93
2017-09-04T03:04:50.486Z,66.93
2017-09-04T03:05:22.067Z,66.91
2017-09-04T03:05:53.635Z,66.90
2017-09-04T03:06:25.321Z,66.84
2017-09-04T03:06:56.912Z,66.75
2017-09-04T03:07:28.486Z,66.73
2017-09-04T03:08:00.054Z,66.76
2017-09-04T03:08:31.694Z,66.73
2017-09-04T03:09:03.279Z,66.76
2017-09-04T03:09:34.896Z,66.81
2017-09-04T03:10:06.497Z,66.75
2017-09-04T03:10:38.121Z,66.81
2017-09-04T03:11:09.708Z,66.82
2017-09-04T03:11:41.589Z,66.84
2017-09-04T03:12:13.175Z,66.80
2017-09-04T03:12:44.780Z,66.82
2017-09-04T03:13:16.403Z,66.84
2017-09-04T03:13:48.192Z,66.83
2017-09-04T03:14:19.775Z,66.77
2017-09-04T03:14:51.572Z,66.74
2017-09-04T03:15:23.140Z,66.77
2017-09-04T03:15:54.741Z,66.79
2017-09-04T03:16:26.504Z,66.80
2017-09-04T03:16:58.087Z,66.79
2017-09-04T03:17:29.669Z,66.79
2017-09-04T03:18:01.427Z,66.79
2017-09-04T03:18:33.024Z,66.77
2017-09-04T03:19:04.649Z,66.77
2017-09-04T03:19:36.253Z,66.72
2017-09-04T03:20:07.821Z,66.77
2017-09-04T03:20:39.442Z,66.79
2017-09-04T03:21:11.021Z,66.78
2017-09-04T03:21:42.885Z,66.76
2017-09-04T03:22:14.466Z,66.76
2017-09-04T03:22:46.204Z,66.77
2017-09-04T03:23:17.791Z,66.83
2017-09-04T03:23:49.351Z,66.80
2017-09-04T03:24:20.980Z,66.77
2017-09-04T03:24:52.559Z,66.71
2017-09-04T03:25:24.118Z,66.87
2017-09-04T03:25:55.746Z,66.80
2017-09-04T03:26:27.313Z,66.85
2017-09-04T03:26:58.893Z,66.87
2017-09-04T03:27:30.533Z,66.84
2017-09-04T03:28:02.135Z,66.90
2017-09-04T03:28:33.733Z,67.09
2017-09-04T03:29:05.342Z,67.10
2017-09-04T03:29:36.961Z,67.08
2017-09-04T03:30:08.574Z,67.06
2017-09-04T03:30:40.156Z,67.03
2017-09-04T03:31:11.730Z,67.01
2017-09-04T03:31:43.296Z,67.02
2017-09-04T03:32:14.886Z,67.02
2017-09-04T03:32:46.497Z,66.96
2017-09-04T03:33:18.116Z,66.93
2017-09-04T03:33:49.700Z,66.91
2017-09-04T03:34:21.403Z,66.90
2017-09-04T03:34:53.006Z,66.85
2017-09-04T03:35:24.610Z,67.03
2017-09-04T03:35:56.225Z,66.99
2017-09-04T03:36:27.974Z,66.93
2017-09-04T03:36:59.548Z,66.97
2017-09-04T03:37:31.140Z,66.97
2017-09-04T03:38:02.860Z,66.97
2017-09-04T03:38:34.552Z,66.88
2017-09-04T03:39:06.164Z,67.05
2017-09-04T03:39:37.729Z,67.05
2017-09-04T03:40:09.359Z,67.13
2017-09-04T03:40:41.056Z,67.08
2017-09-04T03:41:12.748Z,67.15
2017-09-04T03:41:44.374Z,67.10
2017-09-04T03:42:15.983Z,67.09
2017-09-04T03:42:47.675Z,67.09
2017-09-04T03:43:19.314Z,67.11
2017-09-04T03:43:50.886Z,67.12
2017-09-04T03:44:22.466Z,67.11
2017-09-04T03:44:54.033Z,67.11
2017-09-04T03:45:25.697Z,67.15
2017-09-04T03:45:57.414Z,67.15
2017-09-04T03:46:29.050Z,67.13
2017-09-04T03:47:00.626Z,67.13
2017-09-04T03:47:32.462Z,67.10
2017-09-04T03:48:04.071Z,67.08
2017-09-04T03:48:35.655Z,67.08
2017-09-04T03:49:07.221Z,67.10
2017-09-04T03:49:38.847Z,67.09
2017-09-04T03:50:10.658Z,67.09
2017-09-04T03:50:42.301Z,67.07
2017-09-04T03:51:13.898Z,67.04
2017-09-04T03:51:45.534Z,67.03
2017-09-04T03:52:17.130Z,66.99
2017-09-04T03:52:48.725Z,67.00
2017-09-04T03:53:20.344Z,67.03
2017-09-04T03:53:52.151Z,67.06
2017-09-04T03:54:23.726Z,67.05
2017-09-04T03:54:55.628Z,67.11
2017-09-04T03:55:27.246Z,67.09
2017-09-04T03:55:58.862Z,66.93
2017-09-04T03:56:30.458Z,67.13
2017-09-04T03:57:02.050Z,67.01
2017-09-04T03:57:33.664Z,67.04
2017-09-04T03:58:05.313Z,67.03
2017-09-04T03:58:36.929Z,67.07
2017-09-04T03:59:08.570Z,67.10
2017-09-04T03:59:40.242Z,67.11
2017-09-04T04:00:11.858Z,67.08
2017-09-04T04:00:43.450Z,67.13
2017-09-04T04:01:15.058Z,67.09
2017-09-04T04:01:46.648Z,67.09
2017-09-04T04:02:18.255Z,67.16
2017-09-04T04:02:49.858Z,67.17
2017-09-04T04:03:21.442Z,67.21
2017-09-04T04:03:53.054Z,67.16
2017-09-04T04:04:24.641Z,67.08
2017-09-04T04:04:56.322Z,66.93
2017-09-04T04:05:27.899Z,67.03
2017-09-04T04:05:59.506Z,67.12
2017-09-04T04:06:31.472Z,67.08
2017-09-04T04:07:03.050Z,67.01
2017-09-04T04:07:34.636Z,67.00
2017-09-04T04:08:06.490Z,67.04
2017-09-04T04:08:38.069Z,67.01
2017-09-04T04:09:09.632Z,66.99
2017-09-04T04:09:41.240Z,66.98
2017-09-04T04:10:12.815Z,66.99
2017-09-04T04:10:44.400Z,66.98
2017-09-04T04:11:15.971Z,67.00
2017-09-04T04:11:47.534Z,66.93
2017-09-04T04:12:19.116Z,66.96
2017-09-04T04:12:50.714Z,66.93
2017-09-04T04:13:22.366Z,66.85
2017-09-04T04:13:53.951Z,66.89
2017-09-04T04:14:25.570Z,66.82
2017-09-04T04:14:57.160Z,66.85
2017-09-04T04:15:28.777Z,66.93
2017-09-04T04:16:00.515Z,66.89
2017-09-04T04:16:32.139Z,66.90
2017-09-04T04:17:04.006Z,66.96
2017-09-04T04:17:35.594Z,67.04
2017-09-04T04:18:07.181Z,67.05
2017-09-04T04:18:38.765Z,67.06
2017-09-04T04:19:10.353Z,67.05
2017-09-04T04:19:42.238Z,67.08
2017-09-04T04:20:14.442Z,67.18
2017-09-04T04:20:48.973Z,67.15
2017-09-04T04:21:20.825Z,67.23
2017-09-04T04:21:52.415Z,67.19
2017-09-04T04:22:24.193Z,67.18
2017-09-04T04:22:55.789Z,67.14
2017-09-04T04:23:27.479Z,67.12
2017-09-04T04:23:59.043Z,67.04
2017-09-04T04:24:30.664Z,67.06
2017-09-04T04:25:02.237Z,67.08
2017-09-04T04:25:33.845Z,67.11
2017-09-04T04:26:05.690Z,67.13
2017-09-04T04:26:37.299Z,67.12
2017-09-04T04:27:08.873Z,67.08
2017-09-04T04:27:40.488Z,67.07
2017-09-04T04:28:12.105Z,67.07
2017-09-04T04:28:43.703Z,67.07
2017-09-04T04:29:15.542Z,67.08
2017-09-04T04:29:47.187Z,67.14
2017-09-04T04:30:18.781Z,67.11
2017-09-04T04:30:50.469Z,67.14
2017-09-04T04:31:22.045Z,67.09
2017-09-04T04:31:53.761Z,67.10
2017-09-04T04:32:26.270Z,67.14
2017-09-04T04:32:57.899Z,66.93
2017-09-04T04:33:29.594Z,66.95
2017-09-04T04:34:01.238Z,67.00
2017-09-04T04:34:32.880Z,67.07
2017-09-04T04:35:04.475Z,67.02
2017-09-04T04:35:36.076Z,67.02
2017-09-04T04:36:07.807Z,67.02
2017-09-04T04:36:39.418Z,66.98
2017-09-04T04:37:11.026Z,66.94
2017-09-04T04:37:42.632Z,66.95
2017-09-04T04:38:14.373Z,66.95
2017-09-04T04:38:45.989Z,66.98
2017-09-04T04:39:17.563Z,67.04
2017-09-04T04:39:49.141Z,67.05
2017-09-04T04:40:20.736Z,67.04
2017-09-04T04:40:52.311Z,67.15
2017-09-04T04:41:23.916Z,67.17
2017-09-04T04:41:55.522Z,67.16
2017-09-04T04:42:27.107Z,67.15
2017-09-04T04:42:58.681Z,67.16
2017-09-04T04:43:30.489Z,67.17
2017-09-04T04:44:02.052Z,67.21
2017-09-04T04:44:33.768Z,67.19
2017-09-04T04:45:05.350Z,67.21
2017-09-04T04:45:37.051Z,67.19
2017-09-04T04:46:08.655Z,67.20
2017-09-04T04:46:40.334Z,67.20
2017-09-04T04:47:11.920Z,67.20
2017-09-04T04:47:43.579Z,67.22
2017-09-04T04:48:15.191Z,67.22
2017-09-04T04:48:46.904Z,67.22
2017-09-04T04:49:19.006Z,67.18
2017-09-04T04:49:50.800Z,67.09
2017-09-04T04:50:22.394Z,67.11
2017-09-04T04:50:54.001Z,67.18
2017-09-04T04:51:25.647Z,67.13
2017-09-04T04:51:57.297Z,67.14
2017-09-04T04:52:28.870Z,67.09
2017-09-04T04:53:00.498Z,67.09
2017-09-04T04:53:32.129Z,67.05
2017-09-04T04:54:03.748Z,67.06
2017-09-04T04:54:35.321Z,67.10
2017-09-04T04:55:07.159Z,67.11
2017-09-04T04:55:38.863Z,67.11
2017-09-04T04:56:10.434Z,67.04
2017-09-04T04:56:42.146Z,67.10
2017-09-04T04:57:13.953Z,67.16
2017-09-04T04:57:45.537Z,67.15
2017-09-04T04:58:17.123Z,67.12
2017-09-04T04:58:49.028Z,67.02
2017-09-04T04:59:20.631Z,67.02
2017-09-04T04:59:52.216Z,66.95
2017-09-04T05:00:23.805Z,66.97
2017-09-04T05:00:55.388Z,67.05
2017-09-04T05:01:26.999Z,67.09
2017-09-04T05:01:58.583Z,67.13
2017-09-04T05:02:30.218Z,67.17
2017-09-04T05:03:01.853Z,67.14
2017-09-04T05:03:33.419Z,67.10
2017-09-04T05:04:05.439Z,67.06
2017-09-04T05:04:37.011Z,67.10
2017-09-04T05:05:08.724Z,67.11
2017-09-04T05:05:40.338Z,67.09
2017-09-04T05:06:11.925Z,67.06
2017-09-04T05:06:43.517Z,67.13
2017-09-04T05:07:15.097Z,67.13
2017-09-04T05:07:46.659Z,67.14
2017-09-04T05:08:18.268Z,67.15
2017-09-04T05:08:49.834Z,67.12
2017-09-04T05:09:21.501Z,67.11
2017-09-04T05:09:53.137Z,67.11
2017-09-04T05:10:24.721Z,67.09
2017-09-04T05:10:56.339Z,67.09
2017-09-04T05:11:27.924Z,67.11
2017-09-04T05:11:59.592Z,67.05
2017-09-04T05:12:31.202Z,67.11
2017-09-04T05:13:02.778Z,67.14
2017-09-04T05:13:34.630Z,67.06
2017-09-04T05:14:06.327Z,67.29
2017-09-04T05:14:37.973Z,67.21
2017-09-04T05:15:09.554Z,67.19
2017-09-04T05:15:41.253Z,67.32
2017-09-04T05:16:12.902Z,67.24
2017-09-04T05:16:44.542Z,67.41
2017-09-04T05:17:16.154Z,67.46
2017-09-04T05:17:47.714Z,67.61
2017-09-04T05:18:19.327Z,67.48
2017-09-04T05:18:50.932Z,67.60
2017-09-04T05:19:22.748Z,67.52
2017-09-04T05:19:54.401Z,67.64
2017-09-04T05:20:26.021Z,67.93
2017-09-04T05:20:57.586Z,67.73
2017-09-04T05:21:29.189Z,67.73
2017-09-04T05:22:00.823Z,67.67
2017-09-04T05:22:32.443Z,67.88
2017-09-04T05:23:04.060Z,67.89
2017-09-04T05:23:35.888Z,67.97
2017-09-04T05:24:07.523Z,67.92
2017-09-04T05:24:39.117Z,67.99
2017-09-04T05:25:10.718Z,67.92
2017-09-04T05:25:42.462Z,67.92
2017-09-04T05:26:14.038Z,67.87
2017-09-04T05:26:45.597Z,67.96
2017-09-04T05:27:17.170Z,67.76
2017-09-04T05:27:48.732Z,67.81
2017-09-04T05:28:20.301Z,67.84
2017-09-04T05:28:51.945Z,67.88
2017-09-04T05:29:23.635Z,67.95
2017-09-04T05:29:55.204Z,67.92
2017-09-04T05:30:26.775Z,67.90
2017-09-04T05:30:58.360Z,67.90
2017-09-04T05:31:29.942Z,67.87
2017-09-04T05:32:01.538Z,67.88
2017-09-04T05:32:33.149Z,67.92
2017-09-04T05:33:04.754Z,67.89
2017-09-04T05:33:36.466Z,68.00
2017-09-04T05:34:08.064Z,67.99
2017-09-04T05:34:39.645Z,67.92
2017-09-04T05:35:11.227Z,67.79
2017-09-04T05:35:42.845Z,67.79
2017-09-04T05:36:14.435Z,67.75
2017-09-04T05:36:46.030Z,67.76
2017-09-04T05:37:17.603Z,67.73
2017-09-04T05:37:49.292Z,67.77
2017-09-04T05:38:20.864Z,67.76
2017-09-04T05:38:52.576Z,67.80
2017-09-04T05:39:24.187Z,67.77
2017-09-04T05:39:55.770Z,67.77
2017-09-04T05:40:27.353Z,67.77
2017-09-04T05:40:58.951Z,67.78
2017-09-04T05:41:30.541Z,67.82
2017-09-04T05:42:02.180Z,67.75
2017-09-04T05:42:33.790Z,67.88
2017-09-04T05:43:05.358Z,67.82
2017-09-04T05:43:36.951Z,67.77
2017-09-04T05:44:08.534Z,67.79
2017-09-04T05:44:40.092Z,67.71
2017-09-04T05:45:11.695Z,67.73
2017-09-04T05:45:43.282Z,67.77
2017-09-04T05:46:14.894Z,67.72
2017-09-04T05:46:46.488Z,67.73
2017-09-04T05:47:18.061Z,67.68
2017-09-04T05:47:49.764Z,67.68
2017-09-04T05:48:21.433Z,67.68
2017-09-04T05:48:53.053Z,67.68
2017-09-04T05:49:24.700Z,67.68
2017-09-04T05:49:56.287Z,67.71
2017-09-04T05:50:27.885Z,67.66
2017-09-04T05:50:59.640Z,67.66
2017-09-04T05:51:31.267Z,67.62
2017-09-04T05:52:02.862Z,67.61
2017-09-04T05:52:34.651Z,67.62
2017-09-04T05:53:06.226Z,67.60
2017-09-04T05:53:37.791Z,67.59
2017-09-04T05:54:09.562Z,67.56
2017-09-04T05:54:41.428Z,67.59
2017-09-04T05:55:13.074Z,67.58
2017-09-04T05:55:44.652Z,67.57
2017-09-04T05:56:16.214Z,67.64
2017-09-04T05:56:47.815Z,67.66
2017-09-04T05:57:19.401Z,67.64
2017-09-04T05:57:50.977Z,67.75
2017-09-04T05:58:22.554Z,67.69
2017-09-04T05:58:54.353Z,67.69
2017-09-04T05:59:25.937Z,67.65
2017-09-04T05:59:57.511Z,67.69
2017-09-04T06:00:29.080Z,67.83
2017-09-04T06:01:00.672Z,67.83
2017-09-04T06:01:33.223Z,67.79
2017-09-04T06:02:04.957Z,67.89
2017-09-04T06:02:36.771Z,67.84
2017-09-04T06:03:08.408Z,67.81
2017-09-04T06:03:39.982Z,67.81
2017-09-04T06:04:11.561Z,67.89
2017-09-04T06:04:43.133Z,67.79
2017-09-04T06:05:14.736Z,67.82
2017-09-04T06:05:46.310Z,67.82
2017-09-04T06:06:17.899Z,67.87
2017-09-04T06:06:49.465Z,67.82
2017-09-04T06:07:21.082Z,67.82
2017-09-04T06:07:52.646Z,67.84
2017-09-04T06:08:24.208Z,67.83
2017-09-04T06:08:55.816Z,67.87
2017-09-04T06:09:27.393Z,67.83
2017-09-04T06:09:59.001Z,67.77
2017-09-04T06:10:30.783Z,67.82
2017-09-04T06:11:02.381Z,67.85
2017-09-04T06:11:33.980Z,67.81
2017-09-04T06:12:05.566Z,67.88
2017-09-04T06:12:37.192Z,67.82
2017-09-04T06:13:08.814Z,67.83
2017-09-04T06:13:40.378Z,67.89
2017-09-04T06:14:12.014Z,67.88
2017-09-04T06:14:43.618Z,67.79
2017-09-04T06:15:15.204Z,67.79
2017-09-04T06:15:46.893Z,67.80
2017-09-04T06:16:18.495Z,67.83
2017-09-04T06:16:50.185Z,67.80
2017-09-04T06:17:21.761Z,67.82
2017-09-04T06:17:53.381Z,67.77
2017-09-04T06:18:24.947Z,67.77
2017-09-04T06:18:56.546Z,67.77
2017-09-04T06:19:28.119Z,67.76
2017-09-04T06:19:59.688Z,67.74
2017-09-04T06:20:31.294Z,67.74
2017-09-04T06:21:02.870Z,67.80
2017-09-04T06:21:34.630Z,67.81
2017-09-04T06:22:06.214Z,67.71
2017-09-04T06:22:37.927Z,67.71
2017-09-04T06:23:09.577Z,67.71
2017-09-04T06:23:41.172Z,67.72
2017-09-04T06:24:12.749Z,67.68
2017-09-04T06:24:44.339Z,67.68
2017-09-04T06:25:16.141Z,67.67
2017-09-04T06:25:47.716Z,67.67
2017-09-04T06:26:19.277Z,67.69
2017-09-04T06:26:51.065Z,67.69
2017-09-04T06:27:22.632Z,67.70
2017-09-04T06:27:54.218Z,67.71
2017-09-04T06:28:25.858Z,67.74
2017-09-04T06:28:57.423Z,67.75
2017-09-04T06:29:29.041Z,67.71
2017-09-04T06:30:00.605Z,67.79
2017-09-04T06:30:32.198Z,67.77
2017-09-04T06:31:03.772Z,67.73
2017-09-04T06:31:35.368Z,67.77
2017-09-04T06:32:07.149Z,67.77
2017-09-04T06:32:38.734Z,67.75
2017-09-04T06:33:10.343Z,67.80
2017-09-04T06:33:42.008Z,67.80
2017-09-04T06:34:13.586Z,67.76
2017-09-04T06:34:45.388Z,67.76
2017-09-04T06:35:16.957Z,67.78
2017-09-04T06:35:48.670Z,67.79
2017-09-04T06:36:20.237Z,67.81
2017-09-04T06:36:51.817Z,67.79
2017-09-04T06:37:23.393Z,67.83
2017-09-04T06:37:54.965Z,67.78
2017-09-04T06:38:26.575Z,67.72
2017-09-04T06:38:58.183Z,67.79
2017-09-04T06:39:29.773Z,67.75
2017-09-04T06:40:01.501Z,67.76
2017-09-04T06:40:33.085Z,67.80
2017-09-04T06:41:04.785Z,67.78
2017-09-04T06:41:36.385Z,67.78
2017-09-04T06:42:08.012Z,67.84
2017-09-04T06:42:39.620Z,67.84
2017-09-04T06:43:11.255Z,67.82
2017-09-04T06:43:42.850Z,67.93
2017-09-04T06:44:14.638Z,67.97
2017-09-04T06:44:46.232Z,68.05
2017-09-04T06:45:17.807Z,67.98
2017-09-04T06:45:49.388Z,68.13
2017-09-04T06:46:20.954Z,68.05
2017-09-04T06:46:52.702Z,68.08
2017-09-04T06:47:25.411Z,68.06